createdAt,value
2023-02-19T00:00:43.570Z,6.90
2023-02-19T00:06:09.476Z,6.78
2023-02-19T00:11:15.860Z,6.65
2023-02-19T00:16:30.208Z,6.64
2023-02-19T00:21:33.953Z,6.55
2023-02-19T00:26:39.910Z,6.55
2023-02-19T00:31:43.969Z,6.53
2023-02-19T00:36:47.371Z,6.52
2023-02-19T00:41:50.698Z,6.54
2023-02-19T00:46:54.473Z,6.50
2023-02-19T00:51:58.070Z,6.52
2023-02-19T00:57:01.465Z,6.46
2023-02-19T01:02:04.920Z,6.35
2023-02-19T01:07:10.144Z,6.26
2023-02-19T01:12:13.625Z,6.28
2023-02-19T01:17:17.164Z,6.26
2023-02-19T01:22:20.498Z,6.23
2023-02-19T01:27:23.973Z,6.15
2023-02-19T01:32:27.354Z,6.21
2023-02-19T01:37:30.715Z,6.20
2023-02-19T01:42:33.986Z,6.29
2023-02-19T01:47:37.334Z,6.26
2023-02-19T01:52:40.677Z,6.32
2023-02-19T01:57:47.874Z,6.30
2023-02-19T02:02:55.223Z,6.33
2023-02-19T02:08:19.029Z,6.22
2023-02-19T02:13:22.352Z,6.33
2023-02-19T02:18:35.530Z,6.41
2023-02-19T02:24:04.969Z,6.39
2023-02-19T02:29:37.834Z,6.31
2023-02-19T02:34:47.875Z,6.37
2023-02-19T02:39:52.111Z,6.28
2023-02-19T02:45:17.455Z,6.20
2023-02-19T02:50:26.137Z,6.25
2023-02-19T02:55:32.281Z,6.17
2023-02-19T03:00:55.758Z,6.15
2023-02-19T03:06:04.057Z,6.17
2023-02-19T03:11:30.601Z,6.20
2023-02-19T03:16:55.736Z,6.32
2023-02-19T03:22:02.491Z,6.40
2023-02-19T03:27:08.286Z,6.41
2023-02-19T03:32:21.588Z,6.26
2023-02-19T03:37:35.608Z,6.21
2023-02-19T03:42:54.402Z,6.16
2023-02-19T03:48:18.973Z,6.21
2023-02-19T03:54:05.033Z,6.19
2023-02-19T03:59:29.488Z,6.20
2023-02-19T04:04:36.898Z,6.24
2023-02-19T04:09:45.207Z,6.26
2023-02-19T04:14:58.963Z,6.36
2023-02-19T04:20:06.012Z,6.30
2023-02-19T04:25:09.769Z,6.32
2023-02-19T04:30:14.739Z,6.37
2023-02-19T04:35:18.284Z,6.29
2023-02-19T04:40:42.174Z,6.26
2023-02-19T04:45:45.996Z,6.17
2023-02-19T04:51:07.917Z,6.21
2023-02-19T04:56:14.186Z,6.20
2023-02-19T05:01:18.116Z,6.15
2023-02-19T05:06:21.777Z,6.12
2023-02-19T05:11:25.383Z,6.10
2023-02-19T05:16:29.597Z,6.13
2023-02-19T05:21:42.006Z,6.11
2023-02-19T05:26:45.605Z,6.13
2023-02-19T05:31:49.650Z,6.08
2023-02-19T05:36:52.990Z,6.10
2023-02-19T05:41:56.329Z,6.17
2023-02-19T05:47:00.339Z,6.19
2023-02-19T05:52:06.925Z,6.16
2023-02-19T05:57:10.184Z,6.22
2023-02-19T06:02:13.692Z,6.33
2023-02-19T06:07:17.188Z,6.46
2023-02-19T06:12:20.496Z,6.47
2023-02-19T06:17:26.432Z,6.47
2023-02-19T06:22:37.700Z,6.39
2023-02-19T06:27:40.978Z,6.31
2023-02-19T06:32:44.409Z,6.40
2023-02-19T06:37:49.354Z,6.43
2023-02-19T06:42:52.713Z,6.43
2023-02-19T06:47:55.886Z,6.54
2023-02-19T06:52:59.197Z,6.63
2023-02-19T06:58:02.901Z,6.79
2023-02-19T07:03:06.387Z,6.86
2023-02-19T07:08:29.719Z,6.87
2023-02-19T07:13:33.549Z,6.76
2023-02-19T07:18:37.131Z,6.78
2023-02-19T07:23:41.574Z,6.86
2023-02-19T07:28:46.875Z,6.92
2023-02-19T07:33:50.715Z,6.96
2023-02-19T07:39:15.905Z,6.78
2023-02-19T07:44:20.123Z,6.69
2023-02-19T07:49:26.136Z,6.70
2023-02-19T07:54:32.412Z,6.85
2023-02-19T07:59:35.949Z,6.85
2023-02-19T08:04:39.425Z,6.91
2023-02-19T08:09:42.961Z,7.10
2023-02-19T08:14:46.467Z,7.29
2023-02-19T08:19:49.820Z,7.28
2023-02-19T08:24:53.291Z,7.31
2023-02-19T08:30:05.793Z,7.47
2023-02-19T08:35:12.293Z,7.63
2023-02-19T08:40:15.800Z,7.53
2023-02-19T08:45:19.727Z,7.54
2023-02-19T08:50:56.859Z,7.68
2023-02-19T08:56:11.092Z,7.68
2023-02-19T09:01:22.465Z,7.73
2023-02-19T09:06:26.109Z,7.83
2023-02-19T09:11:29.909Z,7.77
2023-02-19T09:16:34.527Z,7.63
2023-02-19T09:21:38.749Z,7.62
2023-02-19T09:26:42.484Z,7.59
2023-02-19T09:31:48.467Z,7.53
2023-02-19T09:36:57.682Z,7.60
2023-02-19T09:42:30.721Z,7.63
2023-02-19T09:47:37.245Z,7.51
2023-02-19T09:52:46.860Z,7.44
2023-02-19T09:57:52.051Z,7.38
2023-02-19T10:03:04.916Z,7.25
2023-02-19T10:08:14.249Z,7.23
2023-02-19T10:13:19.446Z,7.07
2023-02-19T10:18:24.642Z,6.73
2023-02-19T10:23:28.531Z,6.49
2023-02-19T10:28:35.301Z,6.56
2023-02-19T10:33:49.950Z,6.66
2023-02-19T10:38:53.748Z,6.79
2023-02-19T10:44:05.238Z,6.71
2023-02-19T10:49:37.873Z,6.66
2023-02-19T10:54:44.855Z,6.48
2023-02-19T11:00:03.814Z,6.42
2023-02-19T11:05:12.229Z,6.41
2023-02-19T11:10:28.893Z,5.40
2023-02-19T11:15:37.975Z,4.63
2023-02-19T11:21:07.667Z,4.52
2023-02-19T11:26:23.400Z,4.60
2023-02-19T11:31:34.361Z,4.44
2023-02-19T11:36:38.471Z,4.21
2023-02-19T11:42:23.275Z,4.23
2023-02-19T11:47:42.841Z,4.14
2023-02-19T11:53:32.154Z,4.12
2023-02-19T11:58:51.435Z,4.09
2023-02-19T12:04:37.911Z,4.17
2023-02-19T12:09:51.550Z,4.30
2023-02-19T12:15:06.517Z,4.12
2023-02-19T12:20:31.521Z,4.18
2023-02-19T12:25:59.514Z,4.30
2023-02-19T12:31:44.309Z,4.49
2023-02-19T12:37:16.571Z,4.62
2023-02-19T12:42:50.728Z,4.64
2023-02-19T12:48:01.524Z,4.59
2023-02-19T12:53:26.372Z,4.79
2023-02-19T12:58:35.941Z,4.99
2023-02-19T13:03:42.464Z,4.92
2023-02-19T13:09:06.295Z,4.85
2023-02-19T13:14:19.632Z,4.88
2023-02-19T13:19:26.216Z,4.83
2023-02-19T13:24:35.353Z,4.93
2023-02-19T13:29:52.922Z,5.08
2023-02-19T13:35:21.824Z,4.98
2023-02-19T13:40:32.369Z,5.00
2023-02-19T13:45:43.036Z,4.82
2023-02-19T13:50:49.036Z,4.75
2023-02-19T13:55:53.149Z,4.64
2023-02-19T14:01:18.780Z,4.58
2023-02-19T14:06:22.264Z,4.78
2023-02-19T14:12:15.493Z,4.58
2023-02-19T14:17:39.951Z,4.33
2023-02-19T14:22:46.502Z,4.18
2023-02-19T14:27:51.360Z,4.16
2023-02-19T14:33:09.800Z,4.11
2023-02-19T14:38:22.118Z,3.97
2023-02-19T14:43:26.391Z,3.90
2023-02-19T14:48:37.977Z,3.94
2023-02-19T14:53:46.545Z,4.11
2023-02-19T14:59:08.964Z,4.25
2023-02-19T15:04:27.749Z,4.25
2023-02-19T15:10:09.061Z,4.22
2023-02-19T15:15:23.071Z,4.08
2023-02-19T15:20:30.749Z,4.04
2023-02-19T15:25:36.742Z,3.98
2023-02-19T15:30:40.262Z,3.74
2023-02-19T15:35:53.051Z,3.55
2023-02-19T15:41:03.989Z,3.30
2023-02-19T15:46:20.018Z,3.33
2023-02-19T15:51:32.213Z,3.33
2023-02-19T15:56:43.556Z,3.28
2023-02-19T16:02:15.219Z,3.25
2023-02-19T16:07:32.105Z,3.23
2023-02-19T17:36:20.501Z,2.97
2023-02-19T17:41:22.393Z,3.21
2023-02-19T17:46:26.292Z,3.05
2023-02-19T17:51:28.162Z,2.95
2023-02-19T17:56:30.000Z,2.94
2023-02-19T18:01:31.979Z,3.04
2023-02-19T18:06:35.444Z,3.14
2023-02-19T18:11:38.227Z,3.14
2023-02-19T18:16:49.828Z,3.11
2023-02-19T18:21:52.231Z,3.11
2023-02-19T18:26:54.215Z,2.90
2023-02-19T18:31:57.479Z,2.85
2023-02-19T18:36:59.456Z,2.85
2023-02-19T18:42:01.761Z,2.77
2023-02-19T18:47:04.186Z,2.73
2023-02-19T18:52:06.429Z,2.59
2023-02-19T18:57:09.432Z,2.47
2023-02-19T19:02:13.276Z,2.47
2023-02-19T19:07:15.254Z,2.55
2023-02-19T19:12:17.349Z,2.59
2023-02-19T19:17:19.358Z,2.52
2023-02-19T19:22:22.366Z,2.61
2023-02-19T19:27:24.467Z,2.51
2023-02-19T19:32:27.187Z,2.35
2023-02-19T19:37:29.651Z,2.29
2023-02-19T19:42:32.613Z,2.22
2023-02-19T19:47:35.960Z,2.08
2023-02-19T19:52:40.331Z,2.07
2023-02-19T19:57:42.491Z,2.05
2023-02-19T20:02:45.886Z,2.02
2023-02-19T20:07:49.119Z,2.06
2023-02-19T20:12:51.321Z,2.03
2023-02-19T20:17:53.663Z,2.01
2023-02-19T20:22:55.764Z,1.99
2023-02-19T20:27:57.830Z,1.95
2023-02-19T20:32:59.752Z,1.93
2023-02-19T20:38:01.734Z,1.85
2023-02-19T20:43:03.778Z,1.85
2023-02-19T20:48:05.894Z,1.74
2023-02-19T20:53:08.236Z,1.67
2023-02-19T20:58:10.484Z,1.60
2023-02-19T21:03:13.486Z,1.53
2023-02-19T21:08:16.849Z,1.46
2023-02-19T21:13:18.810Z,1.45
2023-02-19T21:18:20.669Z,1.46
2023-02-19T21:23:22.712Z,1.44
2023-02-19T21:28:27.439Z,1.38
2023-02-19T21:33:29.402Z,1.24
2023-02-19T21:38:32.742Z,1.23
2023-02-19T21:43:34.863Z,1.24
2023-02-19T21:48:37.083Z,1.20
2023-02-19T21:53:39.120Z,1.13
2023-02-19T21:58:44.646Z,1.12
2023-02-19T22:03:46.637Z,1.08
2023-02-19T22:08:48.799Z,1.08
2023-02-19T22:13:51.282Z,1.08
2023-02-19T22:18:55.296Z,1.08
2023-02-19T22:23:57.851Z,1.05
2023-02-19T22:29:02.206Z,1.08
2023-02-19T22:34:04.447Z,1.06
2023-02-19T22:39:09.930Z,1.10
2023-02-19T22:44:11.931Z,1.09
2023-02-19T22:49:14.174Z,1.10
2023-02-19T22:54:16.475Z,1.09
2023-02-19T22:59:18.439Z,1.07
2023-02-19T23:04:21.797Z,1.09
2023-02-19T23:09:25.987Z,1.09
2023-02-19T23:14:28.393Z,1.07
2023-02-19T23:19:30.502Z,1.05
2023-02-19T23:24:32.970Z,0.95
2023-02-19T23:29:35.055Z,1.03
2023-02-19T23:34:37.187Z,1.11
2023-02-19T23:39:39.334Z,1.09
2023-02-19T23:44:41.413Z,1.13
2023-02-19T23:49:43.485Z,1.11
2023-02-19T23:54:45.457Z,1.15
2023-02-19T23:59:48.669Z,1.25
